sensor_id;sensor_type;location;lat;lon;timestamp;P1;durP1;ratioP1;P2;durP2;ratioP2
76548;SDS011;65391;52.068;4.542;2023-07-22T00:01:27;17.1;;;8.2;;
76548;SDS011;65391;52.068;4.542;2023-07-22T00:03:52;17.1;;;8.2;;
76548;SDS011;65391;52.068;4.542;2023-07-22T00:06:17;17.1;;;8.2;;
76548;SDS011;65391;52.068;4.542;2023-07-22T00:08:42;17.1;;;8.2;;
76548;SDS011;65391;52.068;4.542;2023-07-22T00:11:07;16.5;;;7.8;;
76548;SDS011;65391;52.068;4.542;2023-07-22T00:13:32;16.5;;;7.8;;
76548;SDS011;65391;52.068;4.542;2023-07-22T00:15:57;16.5;;;7.8;;
76548;SDS011;65391;52.068;4.542;2023-07-22T00:18:22;16.5;;;7.8;;
76548;SDS011;65391;52.068;4.542;2023-07-22T00:20:47;16;;;7.4;;
76548;SDS011;65391;52.068;4.542;2023-07-22T00:23:12;16;;;7.4;;
76548;SDS011;65391;52.068;4.542;2023-07-22T00:25:37;16;;;7.4;;
76548;SDS011;65391;52.068;4.542;2023-07-22T00:28:02;16;;;7.4;;
76548;SDS011;65391;52.068;4.542;2023-07-22T00:30:27;15.6;;;7.8;;
76548;SDS011;65391;52.068;4.542;2023-07-22T00:32:52;15.6;;;7.8;;
76548;SDS011;65391;52.068;4.542;2023-07-22T00:35:17;15.6;;;7.8;;
76548;SDS011;65391;52.068;4.542;2023-07-22T00:37:42;15.6;;;7.8;;
76548;SDS011;65391;52.068;4.542;2023-07-22T00:40:07;15.3;;;7.3;;
76548;SDS011;65391;52.068;4.542;2023-07-22T00:42:32;15.3;;;7.3;;
76548;SDS011;65391;52.068;4.542;2023-07-22T00:44:57;15.3;;;7.3;;
76548;SDS011;65391;52.068;4.542;2023-07-22T00:47:22;15.3;;;7.3;;
76548;SDS011;65391;52.068;4.542;2023-07-22T00:49:47;15.2;;;6.5;;
76548;SDS011;65391;52.068;4.542;2023-07-22T00:52:12;15.2;;;6.5;;
76548;SDS011;65391;52.068;4.542;2023-07-22T00:54:37;15.2;;;6.5;;
76548;SDS011;65391;52.068;4.542;2023-07-22T00:57:02;15.2;;;6.5;;
76548;SDS011;65391;52.068;4.542;2023-07-22T00:59:27;13.9;;;6;;
76548;SDS011;65391;52.068;4.542;2023-07-22T01:01:52;13.9;;;6;;
76548;SDS011;65391;52.068;4.542;2023-07-22T01:04:18;13.9;;;6;;
76548;SDS011;65391;52.068;4.542;2023-07-22T01:06:42;13.9;;;6;;
76548;SDS011;65391;52.068;4.542;2023-07-22T01:09:07;13.9;;;6;;
76548;SDS011;65391;52.068;4.542;2023-07-22T01:11:32;12.6;;;6.2;;
76548;SDS011;65391;52.068;4.542;2023-07-22T01:13:57;12.6;;;6.2;;
76548;SDS011;65391;52.068;4.542;2023-07-22T01:16:22;12.6;;;6.2;;
76548;SDS011;65391;52.068;4.542;2023-07-22T01:18:47;12.6;;;6.2;;
76548;SDS011;65391;52.068;4.542;2023-07-22T01:21:12;14.1;;;5.9;;
76548;SDS011;65391;52.068;4.542;2023-07-22T01:23:37;14.1;;;5.9;;
76548;SDS011;65391;52.068;4.542;2023-07-22T01:26:02;14.1;;;5.9;;
76548;SDS011;65391;52.068;4.542;2023-07-22T01:28:27;14.1;;;5.9;;
76548;SDS011;65391;52.068;4.542;2023-07-22T01:30:52;11.3;;;5.5;;
76548;SDS011;65391;52.068;4.542;2023-07-22T01:33:17;11.3;;;5.5;;
76548;SDS011;65391;52.068;4.542;2023-07-22T01:35:42;11.3;;;5.5;;
76548;SDS011;65391;52.068;4.542;2023-07-22T01:38:07;11.3;;;5.5;;
76548;SDS011;65391;52.068;4.542;2023-07-22T01:40:32;11.9;;;6.1;;
76548;SDS011;65391;52.068;4.542;2023-07-22T01:42:57;11.9;;;6.1;;
76548;SDS011;65391;52.068;4.542;2023-07-22T01:45:22;11.9;;;6.1;;
76548;SDS011;65391;52.068;4.542;2023-07-22T01:47:47;11.9;;;6.1;;
76548;SDS011;65391;52.068;4.542;2023-07-22T01:50:12;10.7;;;5.7;;
76548;SDS011;65391;52.068;4.542;2023-07-22T01:52:37;10.7;;;5.7;;
76548;SDS011;65391;52.068;4.542;2023-07-22T01:55:02;10.7;;;5.7;;
76548;SDS011;65391;52.068;4.542;2023-07-22T01:57:27;10.7;;;5.7;;
76548;SDS011;65391;52.068;4.542;2023-07-22T01:59:52;12.6;;;5.5;;
76548;SDS011;65391;52.068;4.542;2023-07-22T02:02:17;12.6;;;5.5;;
76548;SDS011;65391;52.068;4.542;2023-07-22T02:04:42;12.6;;;5.5;;
76548;SDS011;65391;52.068;4.542;2023-07-22T02:07:07;12.6;;;5.5;;
76548;SDS011;65391;52.068;4.542;2023-07-22T02:09:32;12.3;;;4.9;;
76548;SDS011;65391;52.068;4.542;2023-07-22T02:11:57;12.3;;;4.9;;
76548;SDS011;65391;52.068;4.542;2023-07-22T02:14:22;12.3;;;4.9;;
76548;SDS011;65391;52.068;4.542;2023-07-22T02:16:47;12.3;;;4.9;;
76548;SDS011;65391;52.068;4.542;2023-07-22T02:19:12;12.3;;;4.9;;
76548;SDS011;65391;52.068;4.542;2023-07-22T02:21:37;9.5;;;4.5;;
76548;SDS011;65391;52.068;4.542;2023-07-22T02:24:02;9.5;;;4.5;;
76548;SDS011;65391;52.068;4.542;2023-07-22T02:26:27;9.5;;;4.5;;
76548;SDS011;65391;52.068;4.542;2023-07-22T02:28:52;9.5;;;4.5;;
76548;SDS011;65391;52.068;4.542;2023-07-22T02:31:17;9.4;;;4.7;;
76548;SDS011;65391;52.068;4.542;2023-07-22T02:33:42;9.4;;;4.7;;
76548;SDS011;65391;52.068;4.542;2023-07-22T02:36:07;9.4;;;4.7;;
76548;SDS011;65391;52.068;4.542;2023-07-22T02:38:32;9.4;;;4.7;;
76548;SDS011;65391;52.068;4.542;2023-07-22T02:41:01;7.6;;;4.6;;
76548;SDS011;65391;52.068;4.542;2023-07-22T02:43:22;7.6;;;4.6;;
76548;SDS011;65391;52.068;4.542;2023-07-22T02:45:47;7.6;;;4.6;;
76548;SDS011;65391;52.068;4.542;2023-07-22T02:48:12;7.6;;;4.6;;
76548;SDS011;65391;52.068;4.542;2023-07-22T02:50:37;7.6;;;3.8;;
76548;SDS011;65391;52.068;4.542;2023-07-22T02:53:02;7.6;;;3.8;;
76548;SDS011;65391;52.068;4.542;2023-07-22T02:55:27;7.6;;;3.8;;
76548;SDS011;65391;52.068;4.542;2023-07-22T02:57:52;7.6;;;3.8;;
76548;SDS011;65391;52.068;4.542;2023-07-22T03:00:18;8.6;;;4.3;;
76548;SDS011;65391;52.068;4.542;2023-07-22T03:02:42;8.6;;;4.3;;
76548;SDS011;65391;52.068;4.542;2023-07-22T03:05:08;8.6;;;4.3;;
76548;SDS011;65391;52.068;4.542;2023-07-22T03:07:32;8.6;;;4.3;;
76548;SDS011;65391;52.068;4.542;2023-07-22T03:09:57;7.1;;;3.5;;
76548;SDS011;65391;52.068;4.542;2023-07-22T03:12:22;7.1;;;3.5;;
76548;SDS011;65391;52.068;4.542;2023-07-22T03:14:47;7.1;;;3.5;;
76548;SDS011;65391;52.068;4.542;2023-07-22T03:17:12;7.1;;;3.5;;
76548;SDS011;65391;52.068;4.542;2023-07-22T03:19:37;6.8;;;3.3;;
76548;SDS011;65391;52.068;4.542;2023-07-22T03:22:02;6.8;;;3.3;;
76548;SDS011;65391;52.068;4.542;2023-07-22T03:24:27;6.8;;;3.3;;
76548;SDS011;65391;52.068;4.542;2023-07-22T03:26:52;6.8;;;3.3;;
76548;SDS011;65391;52.068;4.542;2023-07-22T03:29:17;6.8;;;3.3;;
76548;SDS011;65391;52.068;4.542;2023-07-22T03:31:42;6.9;;;3.9;;
76548;SDS011;65391;52.068;4.542;2023-07-22T03:34:07;6.9;;;3.9;;
76548;SDS011;65391;52.068;4.542;2023-07-22T03:36:32;6.9;;;3.9;;
76548;SDS011;65391;52.068;4.542;2023-07-22T03:38:57;6.9;;;3.9;;
76548;SDS011;65391;52.068;4.542;2023-07-22T03:41:22;6.5;;;3.5;;
76548;SDS011;65391;52.068;4.542;2023-07-22T03:43:47;6.5;;;3.5;;
76548;SDS011;65391;52.068;4.542;2023-07-22T03:46:12;6.5;;;3.5;;
76548;SDS011;65391;52.068;4.542;2023-07-22T03:48:37;6.5;;;3.5;;
76548;SDS011;65391;52.068;4.542;2023-07-22T03:51:02;9.1;;;3.1;;
76548;SDS011;65391;52.068;4.542;2023-07-22T03:53:27;9.1;;;3.1;;
76548;SDS011;65391;52.068;4.542;2023-07-22T03:55:52;9.1;;;3.1;;
76548;SDS011;65391;52.068;4.542;2023-07-22T03:58:17;9.1;;;3.1;;
76548;SDS011;65391;52.068;4.542;2023-07-22T04:00:42;9.2;;;3.1;;
76548;SDS011;65391;52.068;4.542;2023-07-22T04:03:07;9.2;;;3.1;;
76548;SDS011;65391;52.068;4.542;2023-07-22T04:05:32;9.2;;;3.1;;
76548;SDS011;65391;52.068;4.542;2023-07-22T04:07:57;9.2;;;3.1;;
76548;SDS011;65391;52.068;4.542;2023-07-22T04:10:22;10.2;;;2.7;;
76548;SDS011;65391;52.068;4.542;2023-07-22T04:12:47;10.2;;;2.7;;
76548;SDS011;65391;52.068;4.542;2023-07-22T04:15:12;10.2;;;2.7;;
76548;SDS011;65391;52.068;4.542;2023-07-22T04:17:37;10.2;;;2.7;;
76548;SDS011;65391;52.068;4.542;2023-07-22T04:20:02;8.2;;;3.4;;
76548;SDS011;65391;52.068;4.542;2023-07-22T04:22:27;8.2;;;3.4;;
76548;SDS011;65391;52.068;4.542;2023-07-22T04:24:52;8.2;;;3.4;;
76548;SDS011;65391;52.068;4.542;2023-07-22T04:27:17;8.2;;;3.4;;
76548;SDS011;65391;52.068;4.542;2023-07-22T04:29:42;8.3;;;4.3;;
76548;SDS011;65391;52.068;4.542;2023-07-22T04:32:07;8.3;;;4.3;;
76548;SDS011;65391;52.068;4.542;2023-07-22T04:34:32;8.3;;;4.3;;
76548;SDS011;65391;52.068;4.542;2023-07-22T04:36:57;8.3;;;4.3;;
76548;SDS011;65391;52.068;4.542;2023-07-22T04:39:22;8.3;;;4.3;;
76548;SDS011;65391;52.068;4.542;2023-07-22T04:41:47;11.6;;;5.5;;
76548;SDS011;65391;52.068;4.542;2023-07-22T04:44:12;11.6;;;5.5;;
76548;SDS011;65391;52.068;4.542;2023-07-22T04:46:37;11.6;;;5.5;;
76548;SDS011;65391;52.068;4.542;2023-07-22T04:49:02;11.6;;;5.5;;
76548;SDS011;65391;52.068;4.542;2023-07-22T04:51:27;12.1;;;6;;
76548;SDS011;65391;52.068;4.542;2023-07-22T04:53:52;12.1;;;6;;
76548;SDS011;65391;52.068;4.542;2023-07-22T04:56:17;12.1;;;6;;
76548;SDS011;65391;52.068;4.542;2023-07-22T04:58:42;12.1;;;6;;
76548;SDS011;65391;52.068;4.542;2023-07-22T05:01:07;14.7;;;6.6;;
76548;SDS011;65391;52.068;4.542;2023-07-22T05:03:32;14.7;;;6.6;;
76548;SDS011;65391;52.068;4.542;2023-07-22T05:05:57;14.7;;;6.6;;
76548;SDS011;65391;52.068;4.542;2023-07-22T05:08:22;14.7;;;6.6;;
76548;SDS011;65391;52.068;4.542;2023-07-22T05:10:47;16.9;;;7.5;;
76548;SDS011;65391;52.068;4.542;2023-07-22T05:13:12;16.9;;;7.5;;
76548;SDS011;65391;52.068;4.542;2023-07-22T05:15:37;16.9;;;7.5;;
76548;SDS011;65391;52.068;4.542;2023-07-22T05:18:02;16.9;;;7.5;;
76548;SDS011;65391;52.068;4.542;2023-07-22T05:20:27;21;;;11;;
76548;SDS011;65391;52.068;4.542;2023-07-22T05:22:55;21;;;11;;
76548;SDS011;65391;52.068;4.542;2023-07-22T05:25:17;21;;;11;;
76548;SDS011;65391;52.068;4.542;2023-07-22T05:27:42;21;;;11;;
76548;SDS011;65391;52.068;4.542;2023-07-22T05:30:07;20.4;;;10.7;;
76548;SDS011;65391;52.068;4.542;2023-07-22T05:32:32;20.4;;;10.7;;
76548;SDS011;65391;52.068;4.542;2023-07-22T05:34:57;20.4;;;10.7;;
76548;SDS011;65391;52.068;4.542;2023-07-22T05:37:22;20.4;;;10.7;;
76548;SDS011;65391;52.068;4.542;2023-07-22T05:39:47;20.8;;;10.8;;
76548;SDS011;65391;52.068;4.542;2023-07-22T05:42:12;20.8;;;10.8;;
76548;SDS011;65391;52.068;4.542;2023-07-22T05:44:37;20.8;;;10.8;;
76548;SDS011;65391;52.068;4.542;2023-07-22T05:47:02;20.8;;;10.8;;
76548;SDS011;65391;52.068;4.542;2023-07-22T05:49:27;20.8;;;10.8;;
76548;SDS011;65391;52.068;4.542;2023-07-22T05:51:53;20.5;;;10.4;;
76548;SDS011;65391;52.068;4.542;2023-07-22T05:54:17;20.5;;;10.4;;
76548;SDS011;65391;52.068;4.542;2023-07-22T05:56:42;20.5;;;10.4;;
76548;SDS011;65391;52.068;4.542;2023-07-22T05:59:07;20.5;;;10.4;;
76548;SDS011;65391;52.068;4.542;2023-07-22T06:01:32;20.6;;;10.4;;
76548;SDS011;65391;52.068;4.542;2023-07-22T06:03:57;20.6;;;10.4;;
76548;SDS011;65391;52.068;4.542;2023-07-22T06:06:22;20.6;;;10.4;;
76548;SDS011;65391;52.068;4.542;2023-07-22T06:08:47;20.6;;;10.4;;
76548;SDS011;65391;52.068;4.542;2023-07-22T06:11:12;21.8;;;11.4;;
76548;SDS011;65391;52.068;4.542;2023-07-22T06:13:37;21.8;;;11.4;;
76548;SDS011;65391;52.068;4.542;2023-07-22T06:16:03;21.8;;;11.4;;
76548;SDS011;65391;52.068;4.542;2023-07-22T06:18:27;21.8;;;11.4;;
76548;SDS011;65391;52.068;4.542;2023-07-22T06:20:52;20.4;;;10.2;;
76548;SDS011;65391;52.068;4.542;2023-07-22T06:23:17;20.4;;;10.2;;
76548;SDS011;65391;52.068;4.542;2023-07-22T06:25:43;20.4;;;10.2;;
76548;SDS011;65391;52.068;4.542;2023-07-22T06:28:08;20.4;;;10.2;;
76548;SDS011;65391;52.068;4.542;2023-07-22T06:30:32;21.2;;;10.5;;
76548;SDS011;65391;52.068;4.542;2023-07-22T06:32:57;21.2;;;10.5;;
76548;SDS011;65391;52.068;4.542;2023-07-22T06:35:22;21.2;;;10.5;;
76548;SDS011;65391;52.068;4.542;2023-07-22T06:37:47;21.2;;;10.5;;
76548;SDS011;65391;52.068;4.542;2023-07-22T06:40:12;19.6;;;9.6;;
76548;SDS011;65391;52.068;4.542;2023-07-22T06:42:37;19.6;;;9.6;;
76548;SDS011;65391;52.068;4.542;2023-07-22T06:45:03;19.6;;;9.6;;
76548;SDS011;65391;52.068;4.542;2023-07-22T06:47:27;19.6;;;9.6;;
76548;SDS011;65391;52.068;4.542;2023-07-22T06:49:52;20.9;;;10.6;;
76548;SDS011;65391;52.068;4.542;2023-07-22T06:52:17;20.9;;;10.6;;
76548;SDS011;65391;52.068;4.542;2023-07-22T06:54:42;20.9;;;10.6;;
76548;SDS011;65391;52.068;4.542;2023-07-22T06:57:08;20.9;;;10.6;;
76548;SDS011;65391;52.068;4.542;2023-07-22T06:59:32;20.9;;;10.6;;
76548;SDS011;65391;52.068;4.542;2023-07-22T07:01:58;20;;;9.7;;
76548;SDS011;65391;52.068;4.542;2023-07-22T07:04:23;20;;;9.7;;
76548;SDS011;65391;52.068;4.542;2023-07-22T07:06:48;20;;;9.7;;
76548;SDS011;65391;52.068;4.542;2023-07-22T07:09:12;20;;;9.7;;
76548;SDS011;65391;52.068;4.542;2023-07-22T07:11:38;20.4;;;9.2;;
76548;SDS011;65391;52.068;4.542;2023-07-22T07:14:02;20.4;;;9.2;;
76548;SDS011;65391;52.068;4.542;2023-07-22T07:16:29;20.4;;;9.2;;
76548;SDS011;65391;52.068;4.542;2023-07-22T07:18:53;20.4;;;9.2;;
76548;SDS011;65391;52.068;4.542;2023-07-22T07:21:18;18.6;;;8.2;;
76548;SDS011;65391;52.068;4.542;2023-07-22T07:23:43;18.6;;;8.2;;
76548;SDS011;65391;52.068;4.542;2023-07-22T07:26:08;18.6;;;8.2;;
76548;SDS011;65391;52.068;4.542;2023-07-22T07:28:33;18.6;;;8.2;;
76548;SDS011;65391;52.068;4.542;2023-07-22T07:30:58;20.6;;;9.2;;
76548;SDS011;65391;52.068;4.542;2023-07-22T07:33:23;20.6;;;9.2;;
76548;SDS011;65391;52.068;4.542;2023-07-22T07:35:48;20.6;;;9.2;;
76548;SDS011;65391;52.068;4.542;2023-07-22T07:38:13;20.6;;;9.2;;
76548;SDS011;65391;52.068;4.542;2023-07-22T07:40:38;16.8;;;9;;
76548;SDS011;65391;52.068;4.542;2023-07-22T07:43:03;16.8;;;9;;
76548;SDS011;65391;52.068;4.542;2023-07-22T07:45:28;16.8;;;9;;
76548;SDS011;65391;52.068;4.542;2023-07-22T07:47:53;16.8;;;9;;
76548;SDS011;65391;52.068;4.542;2023-07-22T07:50:18;12.2;;;6.8;;
76548;SDS011;65391;52.068;4.542;2023-07-22T07:52:43;12.2;;;6.8;;
76548;SDS011;65391;52.068;4.542;2023-07-22T07:55:08;12.2;;;6.8;;
76548;SDS011;65391;52.068;4.542;2023-07-22T07:57:33;12.2;;;6.8;;
76548;SDS011;65391;52.068;4.542;2023-07-22T07:59:58;13;;;7.9;;
76548;SDS011;65391;52.068;4.542;2023-07-22T08:02:23;13;;;7.9;;
76548;SDS011;65391;52.068;4.542;2023-07-22T08:04:48;13;;;7.9;;
76548;SDS011;65391;52.068;4.542;2023-07-22T08:07:15;13;;;7.9;;
76548;SDS011;65391;52.068;4.542;2023-07-22T08:09:38;13;;;7.9;;
76548;SDS011;65391;52.068;4.542;2023-07-22T08:12:03;11.8;;;6.9;;
76548;SDS011;65391;52.068;4.542;2023-07-22T08:14:28;11.8;;;6.9;;
76548;SDS011;65391;52.068;4.542;2023-07-22T08:16:53;11.8;;;6.9;;
76548;SDS011;65391;52.068;4.542;2023-07-22T08:19:18;11.8;;;6.9;;
76548;SDS011;65391;52.068;4.542;2023-07-22T08:21:43;14.8;;;6.7;;
76548;SDS011;65391;52.068;4.542;2023-07-22T08:24:08;14.8;;;6.7;;
76548;SDS011;65391;52.068;4.542;2023-07-22T08:26:33;14.8;;;6.7;;
76548;SDS011;65391;52.068;4.542;2023-07-22T08:28:58;14.8;;;6.7;;
76548;SDS011;65391;52.068;4.542;2023-07-22T08:31:23;13.9;;;5.6;;
76548;SDS011;65391;52.068;4.542;2023-07-22T08:33:48;13.9;;;5.6;;
76548;SDS011;65391;52.068;4.542;2023-07-22T08:36:13;13.9;;;5.6;;
76548;SDS011;65391;52.068;4.542;2023-07-22T08:38:38;13.9;;;5.6;;
76548;SDS011;65391;52.068;4.542;2023-07-22T08:41:03;7.6;;;4.3;;
76548;SDS011;65391;52.068;4.542;2023-07-22T08:43:28;7.6;;;4.3;;
76548;SDS011;65391;52.068;4.542;2023-07-22T08:45:53;7.6;;;4.3;;
76548;SDS011;65391;52.068;4.542;2023-07-22T08:48:18;7.6;;;4.3;;
76548;SDS011;65391;52.068;4.542;2023-07-22T08:50:44;6;;;3.2;;
76548;SDS011;65391;52.068;4.542;2023-07-22T08:53:08;6;;;3.2;;
76548;SDS011;65391;52.068;4.542;2023-07-22T08:55:33;6;;;3.2;;
76548;SDS011;65391;52.068;4.542;2023-07-22T08:57:58;6;;;3.2;;
76548;SDS011;65391;52.068;4.542;2023-07-22T09:00:23;6.1;;;2.4;;
76548;SDS011;65391;52.068;4.542;2023-07-22T09:02:48;6.1;;;2.4;;
76548;SDS011;65391;52.068;4.542;2023-07-22T09:05:13;6.1;;;2.4;;
76548;SDS011;65391;52.068;4.542;2023-07-22T09:07:38;6.1;;;2.4;;
76548;SDS011;65391;52.068;4.542;2023-07-22T09:10:03;6.5;;;3;;
76548;SDS011;65391;52.068;4.542;2023-07-22T09:12:28;6.5;;;3;;
76548;SDS011;65391;52.068;4.542;2023-07-22T09:14:53;6.5;;;3;;
76548;SDS011;65391;52.068;4.542;2023-07-22T09:17:18;6.5;;;3;;
76548;SDS011;65391;52.068;4.542;2023-07-22T09:19:43;6.5;;;3;;
76548;SDS011;65391;52.068;4.542;2023-07-22T09:22:08;6.4;;;2.1;;
76548;SDS011;65391;52.068;4.542;2023-07-22T09:24:33;6.4;;;2.1;;
76548;SDS011;65391;52.068;4.542;2023-07-22T09:26:58;6.4;;;2.1;;
76548;SDS011;65391;52.068;4.542;2023-07-22T09:29:33;6.4;;;2.1;;
76548;SDS011;65391;52.068;4.542;2023-07-22T09:31:48;4.5;;;2;;
76548;SDS011;65391;52.068;4.542;2023-07-22T09:34:13;4.5;;;2;;
76548;SDS011;65391;52.068;4.542;2023-07-22T09:36:49;4.5;;;2;;
76548;SDS011;65391;52.068;4.542;2023-07-22T09:39:03;4.5;;;2;;
76548;SDS011;65391;52.068;4.542;2023-07-22T09:41:28;5.9;;;2.2;;
76548;SDS011;65391;52.068;4.542;2023-07-22T09:43:53;5.9;;;2.2;;
76548;SDS011;65391;52.068;4.542;2023-07-22T09:46:18;5.9;;;2.2;;
76548;SDS011;65391;52.068;4.542;2023-07-22T09:48:44;5.9;;;2.2;;
76548;SDS011;65391;52.068;4.542;2023-07-22T09:51:12;8.2;;;2.5;;
76548;SDS011;65391;52.068;4.542;2023-07-22T09:53:33;8.2;;;2.5;;
76548;SDS011;65391;52.068;4.542;2023-07-22T09:56:03;8.2;;;2.5;;
76548;SDS011;65391;52.068;4.542;2023-07-22T09:58:23;8.2;;;2.5;;
76548;SDS011;65391;52.068;4.542;2023-07-22T10:00:48;7;;;2.4;;
76548;SDS011;65391;52.068;4.542;2023-07-22T10:03:13;7;;;2.4;;
76548;SDS011;65391;52.068;4.542;2023-07-22T10:05:38;7;;;2.4;;
76548;SDS011;65391;52.068;4.542;2023-07-22T10:08:04;7;;;2.4;;
76548;SDS011;65391;52.068;4.542;2023-07-22T10:10:30;7;;;2;;
76548;SDS011;65391;52.068;4.542;2023-07-22T10:12:53;7;;;2;;
76548;SDS011;65391;52.068;4.542;2023-07-22T10:15:18;7;;;2;;
76548;SDS011;65391;52.068;4.542;2023-07-22T10:17:43;7;;;2;;
76548;SDS011;65391;52.068;4.542;2023-07-22T10:20:08;5.8;;;2.5;;
76548;SDS011;65391;52.068;4.542;2023-07-22T10:22:34;5.8;;;2.5;;
76548;SDS011;65391;52.068;4.542;2023-07-22T10:24:58;5.8;;;2.5;;
76548;SDS011;65391;52.068;4.542;2023-07-22T10:27:23;5.8;;;2.5;;
76548;SDS011;65391;52.068;4.542;2023-07-22T10:29:48;5.8;;;2.5;;
76548;SDS011;65391;52.068;4.542;2023-07-22T10:32:13;7.5;;;2.4;;
76548;SDS011;65391;52.068;4.542;2023-07-22T10:34:38;7.5;;;2.4;;
76548;SDS011;65391;52.068;4.542;2023-07-22T10:37:03;7.5;;;2.4;;
76548;SDS011;65391;52.068;4.542;2023-07-22T10:39:28;7.5;;;2.4;;
76548;SDS011;65391;52.068;4.542;2023-07-22T10:41:59;6.7;;;2.1;;
76548;SDS011;65391;52.068;4.542;2023-07-22T10:44:18;6.7;;;2.1;;
76548;SDS011;65391;52.068;4.542;2023-07-22T10:46:43;6.7;;;2.1;;
76548;SDS011;65391;52.068;4.542;2023-07-22T10:49:09;6.7;;;2.1;;
76548;SDS011;65391;52.068;4.542;2023-07-22T10:51:35;5.9;;;2.1;;
76548;SDS011;65391;52.068;4.542;2023-07-22T10:53:58;5.9;;;2.1;;
76548;SDS011;65391;52.068;4.542;2023-07-22T10:56:23;5.9;;;2.1;;
76548;SDS011;65391;52.068;4.542;2023-07-22T10:58:57;5.9;;;2.1;;
76548;SDS011;65391;52.068;4.542;2023-07-22T11:01:44;3.4;;;1;;
76548;SDS011;65391;52.068;4.542;2023-07-22T11:04:23;3.4;;;1;;
76548;SDS011;65391;52.068;4.542;2023-07-22T11:06:03;3.4;;;1;;
76548;SDS011;65391;52.068;4.542;2023-07-22T11:08:36;3.4;;;1;;
76548;SDS011;65391;52.068;4.542;2023-07-22T11:10:53;4.8;;;2.2;;
76548;SDS011;65391;52.068;4.542;2023-07-22T11:13:18;4.8;;;2.2;;
76548;SDS011;65391;52.068;4.542;2023-07-22T11:15:47;4.8;;;2.2;;
76548;SDS011;65391;52.068;4.542;2023-07-22T11:18:08;4.8;;;2.2;;
76548;SDS011;65391;52.068;4.542;2023-07-22T11:20:33;3.8;;;1.5;;
76548;SDS011;65391;52.068;4.542;2023-07-22T11:22:58;3.8;;;1.5;;
76548;SDS011;65391;52.068;4.542;2023-07-22T11:25:23;3.8;;;1.5;;
76548;SDS011;65391;52.068;4.542;2023-07-22T11:27:48;3.8;;;1.5;;
76548;SDS011;65391;52.068;4.542;2023-07-22T11:30:13;2.7;;;1.3;;
76548;SDS011;65391;52.068;4.542;2023-07-22T11:32:42;2.7;;;1.3;;
76548;SDS011;65391;52.068;4.542;2023-07-22T11:35:04;2.7;;;1.3;;
76548;SDS011;65391;52.068;4.542;2023-07-22T11:37:28;2.7;;;1.3;;
76548;SDS011;65391;52.068;4.542;2023-07-22T11:39:53;2.7;;;1.3;;
76548;SDS011;65391;52.068;4.542;2023-07-22T11:42:18;2.5;;;0.8;;
76548;SDS011;65391;52.068;4.542;2023-07-22T11:44:43;2.5;;;0.8;;
76548;SDS011;65391;52.068;4.542;2023-07-22T11:47:08;2.5;;;0.8;;
76548;SDS011;65391;52.068;4.542;2023-07-22T11:49:34;2.5;;;0.8;;
76548;SDS011;65391;52.068;4.542;2023-07-22T11:51:59;2.7;;;1.1;;
76548;SDS011;65391;52.068;4.542;2023-07-22T11:54:23;2.7;;;1.1;;
76548;SDS011;65391;52.068;4.542;2023-07-22T11:56:48;2.7;;;1.1;;
76548;SDS011;65391;52.068;4.542;2023-07-22T11:59:13;2.7;;;1.1;;
76548;SDS011;65391;52.068;4.542;2023-07-22T12:01:38;1.6;;;0.9;;
76548;SDS011;65391;52.068;4.542;2023-07-22T12:04:08;1.6;;;0.9;;
76548;SDS011;65391;52.068;4.542;2023-07-22T12:06:29;1.6;;;0.9;;
76548;SDS011;65391;52.068;4.542;2023-07-22T12:08:53;1.6;;;0.9;;
76548;SDS011;65391;52.068;4.542;2023-07-22T12:11:18;3.2;;;1.7;;
76548;SDS011;65391;52.068;4.542;2023-07-22T12:13:43;3.2;;;1.7;;
76548;SDS011;65391;52.068;4.542;2023-07-22T12:16:08;3.2;;;1.7;;
76548;SDS011;65391;52.068;4.542;2023-07-22T12:18:41;3.2;;;1.7;;
76548;SDS011;65391;52.068;4.542;2023-07-22T12:20:58;1.6;;;0.8;;
76548;SDS011;65391;52.068;4.542;2023-07-22T12:23:23;1.6;;;0.8;;
76548;SDS011;65391;52.068;4.542;2023-07-22T12:25:48;1.6;;;0.8;;
76548;SDS011;65391;52.068;4.542;2023-07-22T12:28:13;1.6;;;0.8;;
76548;SDS011;65391;52.068;4.542;2023-07-22T12:30:38;3.7;;;1.2;;
76548;SDS011;65391;52.068;4.542;2023-07-22T12:33:03;3.7;;;1.2;;
76548;SDS011;65391;52.068;4.542;2023-07-22T12:35:29;3.7;;;1.2;;
76548;SDS011;65391;52.068;4.542;2023-07-22T12:37:53;3.7;;;1.2;;
76548;SDS011;65391;52.068;4.542;2023-07-22T12:40:19;2.3;;;1;;
76548;SDS011;65391;52.068;4.542;2023-07-22T12:42:43;2.3;;;1;;
76548;SDS011;65391;52.068;4.542;2023-07-22T12:45:09;2.3;;;1;;
76548;SDS011;65391;52.068;4.542;2023-07-22T12:47:33;2.3;;;1;;
76548;SDS011;65391;52.068;4.542;2023-07-22T12:49:58;2.3;;;1;;
76548;SDS011;65391;52.068;4.542;2023-07-22T12:52:23;2.3;;;0.9;;
76548;SDS011;65391;52.068;4.542;2023-07-22T12:54:48;2.3;;;0.9;;
76548;SDS011;65391;52.068;4.542;2023-07-22T12:57:13;2.3;;;0.9;;
76548;SDS011;65391;52.068;4.542;2023-07-22T12:59:38;2.3;;;0.9;;
76548;SDS011;65391;52.068;4.542;2023-07-22T13:02:04;3;;;1;;
76548;SDS011;65391;52.068;4.542;2023-07-22T13:04:28;3;;;1;;
76548;SDS011;65391;52.068;4.542;2023-07-22T13:06:53;3;;;1;;
76548;SDS011;65391;52.068;4.542;2023-07-22T13:09:18;3;;;1;;
76548;SDS011;65391;52.068;4.542;2023-07-22T13:11:43;2.6;;;1;;
76548;SDS011;65391;52.068;4.542;2023-07-22T13:14:08;2.6;;;1;;
76548;SDS011;65391;52.068;4.542;2023-07-22T13:16:33;2.6;;;1;;
76548;SDS011;65391;52.068;4.542;2023-07-22T13:18:58;2.6;;;1;;
76548;SDS011;65391;52.068;4.542;2023-07-22T13:21:23;3.9;;;1.1;;
76548;SDS011;65391;52.068;4.542;2023-07-22T13:23:48;3.9;;;1.1;;
76548;SDS011;65391;52.068;4.542;2023-07-22T13:26:13;3.9;;;1.1;;
76548;SDS011;65391;52.068;4.542;2023-07-22T13:28:38;3.9;;;1.1;;
76548;SDS011;65391;52.068;4.542;2023-07-22T13:31:03;3;;;1;;
76548;SDS011;65391;52.068;4.542;2023-07-22T13:33:28;3;;;1;;
76548;SDS011;65391;52.068;4.542;2023-07-22T13:35:53;3;;;1;;
76548;SDS011;65391;52.068;4.542;2023-07-22T13:38:18;3;;;1;;
76548;SDS011;65391;52.068;4.542;2023-07-22T13:40:43;2.5;;;1.1;;
76548;SDS011;65391;52.068;4.542;2023-07-22T13:43:08;2.5;;;1.1;;
76548;SDS011;65391;52.068;4.542;2023-07-22T13:45:34;2.5;;;1.1;;
76548;SDS011;65391;52.068;4.542;2023-07-22T13:47:58;2.5;;;1.1;;
76548;SDS011;65391;52.068;4.542;2023-07-22T13:50:23;2.1;;;1;;
76548;SDS011;65391;52.068;4.542;2023-07-22T13:52:49;2.1;;;1;;
76548;SDS011;65391;52.068;4.542;2023-07-22T13:55:13;2.1;;;1;;
76548;SDS011;65391;52.068;4.542;2023-07-22T13:57:38;2.1;;;1;;
76548;SDS011;65391;52.068;4.542;2023-07-22T14:00:04;2.1;;;1;;
76548;SDS011;65391;52.068;4.542;2023-07-22T14:02:28;3.3;;;1.1;;
76548;SDS011;65391;52.068;4.542;2023-07-22T14:04:53;3.3;;;1.1;;
76548;SDS011;65391;52.068;4.542;2023-07-22T14:07:18;3.3;;;1.1;;
76548;SDS011;65391;52.068;4.542;2023-07-22T14:09:43;3.3;;;1.1;;
76548;SDS011;65391;52.068;4.542;2023-07-22T14:12:08;3.1;;;1.2;;
76548;SDS011;65391;52.068;4.542;2023-07-22T14:14:33;3.1;;;1.2;;
76548;SDS011;65391;52.068;4.542;2023-07-22T14:16:58;3.1;;;1.2;;
76548;SDS011;65391;52.068;4.542;2023-07-22T14:19:24;3.1;;;1.2;;
76548;SDS011;65391;52.068;4.542;2023-07-22T14:21:48;2.8;;;1.4;;
76548;SDS011;65391;52.068;4.542;2023-07-22T14:24:13;2.8;;;1.4;;
76548;SDS011;65391;52.068;4.542;2023-07-22T14:26:38;2.8;;;1.4;;
76548;SDS011;65391;52.068;4.542;2023-07-22T14:29:03;2.8;;;1.4;;
76548;SDS011;65391;52.068;4.542;2023-07-22T14:31:29;5.7;;;1.7;;
76548;SDS011;65391;52.068;4.542;2023-07-22T14:33:53;5.7;;;1.7;;
76548;SDS011;65391;52.068;4.542;2023-07-22T14:36:18;5.7;;;1.7;;
76548;SDS011;65391;52.068;4.542;2023-07-22T14:38:44;5.7;;;1.7;;
76548;SDS011;65391;52.068;4.542;2023-07-22T14:41:08;4.2;;;2;;
76548;SDS011;65391;52.068;4.542;2023-07-22T14:43:34;4.2;;;2;;
76548;SDS011;65391;52.068;4.542;2023-07-22T14:45:59;4.2;;;2;;
76548;SDS011;65391;52.068;4.542;2023-07-22T14:48:24;4.2;;;2;;
76548;SDS011;65391;52.068;4.542;2023-07-22T14:50:49;3.1;;;1.4;;
76548;SDS011;65391;52.068;4.542;2023-07-22T14:53:14;3.1;;;1.4;;
76548;SDS011;65391;52.068;4.542;2023-07-22T14:55:39;3.1;;;1.4;;
76548;SDS011;65391;52.068;4.542;2023-07-22T14:58:04;3.1;;;1.4;;
76548;SDS011;65391;52.068;4.542;2023-07-22T15:00:29;4.6;;;1.3;;